Current Weather

Vermilion Rgnl

Danville, Illinois (KDNV)

Report from: Saturday, July 13, 2024 7:15 PM CDT
Current time: Saturday, July 13, 2024 7:35 PM CDT

Nearby weather – Weather history – Daily summaries
Weather forecast

Present weatherHeavy rain
Temperature27.6°C (81.7°F)
Heat index31.1°C (87.9°F)
Dew point23.6°C (74.5°F)
Winds 3 kts (1.5 m/s, 3.5 mph) South (170°)
Visibility4 mi. (6.4 km)
Clouds Sky clear
Altimeter30.10 in.Hg (1019 mB)
Relative humidity79 %
Density altitude1,638 ft. (499 m)
Remarks Fully automated report
Automated weather observing station with precipitation discriminator
Flight conditions Marginal Visual Meteorological Conditions
Raw dataKDNV 140015Z AUTO 17003KT 4SM +RA CLR 28/24 A3010 RMK AO2 T02760236
An error has occurred. This application may no longer respond until reloaded. Reload 🗙